Council Bluffs Municipal Airport
Tuesday 12:35 PM
Weather Partly Cloudy
VFR
Temperature 84°
Dew Point 75°
Feels Like 92°
Relative Humidity 74
%
Visibility 10
mi
Pressure 1006.1
mb
Wind Direction S
Wind Speed 28
mph
Last Hour Precip 0.00
"
KCBF 181735Z AUTO 19024G32KT 10SM FEW025 FEW043 SCT050 29/24 A2971 RMK AO2

Recent Observations

Time Present Weather Temp DP Feels RH% Vsby Pressure Ceiling Direction Speed Gust 1h Precip
12:35PM
VFR
84° 75° 92° 74
%
10
mi
1006.1
mb
None S 28
mph
37
mph
0.00"
KCBF 181735Z AUTO 19024G32KT 10SM FEW025 FEW043 SCT050 29/24 A2971 RMK AO2
12:15PM
VFR
82° 75° 89° 79
%
10
mi
1005.8
mb
None S 24
mph
37
mph
0.00"
KCBF 181715Z AUTO 18021G32KT 10SM CLR 28/24 A2970 RMK AO2
11:55AM
VFR
82° 75° 89° 79
%
10
mi
1006.1
mb
None S 23
mph
32
mph
0.00"
KCBF 181655Z AUTO 18020G28KT 10SM FEW065 28/24 A2971 RMK AO2
11:35AM
VFR
81° 77° 88° 89
%
10
mi
1005.8
mb
None S 28
mph
37
mph
0.00"
KCBF 181635Z AUTO 18024G32KT 10SM SCT049 SCT070 27/25 A2970 RMK AO2
11:15AM
VFR
79° 77° 79° 94
%
10
mi
1005.8
mb
4900
ft
S 24
mph
33
mph
0.00"
KCBF 181615Z AUTO 19021G29KT 10SM FEW030 FEW042 BKN049 26/25 A2970 RMK AO2
10:55AM
MVFR
79° 77° 79° 94
%
10
mi
1006.1
mb
2700
ft
S 21
mph
32
mph
0.00"
KCBF 181555Z AUTO 18018G28KT 10SM BKN027 BKN032 OVC041 26/25 A2971 RMK AO2
10:35AM
MVFR
79° 75° 79° 89
%
10
mi
1006.4
mb
2400
ft
S 21
mph
31
mph
0.00"
KCBF 181535Z AUTO 18018G27KT 10SM OVC024 26/24 A2972 RMK AO2
10:15AM
MVFR
79° 75° 79° 89
%
10
mi
1006.4
mb
2500
ft
SSW 18
mph
24
mph
0.00"
KCBF 181515Z AUTO 20016G21KT 10SM OVC025 26/24 A2972 RMK AO2
9:55AM
MVFR
79° 75° 79° 89
%
10
mi
1006.1
mb
2600
ft
S 17
mph
24
mph
0.00"
KCBF 181455Z AUTO 19015G21KT 10SM OVC026 26/24 A2971 RMK AO2
9:35AM
MVFR
79° 75° 79° 89
%
10
mi
1005.1
mb
2600
ft
S 21
mph
36
mph
0.00"
KCBF 181435Z AUTO 18018G31KT 10SM BKN026 OVC030 26/24 A2968 RMK AO2
9:15AM
MVFR
79° 75° 79° 89
%
10
mi
1005.1
mb
2600
ft
S 24
mph
33
mph
0.00"
KCBF 181415Z AUTO 19021G29KT 10SM BKN026 OVC031 26/24 A2968 RMK AO2
8:55AM
VFR
79° 77° 79° 94
%
10
mi
1005.1
mb
3100
ft
S 23
mph
31
mph
0.00"
KCBF 181355Z AUTO 18020G27KT 10SM SCT025 OVC031 26/25 A2968 RMK AO2
8:35AM
MVFR
79° 77° 79° 94
%
10
mi
1004.7
mb
2900
ft
S 24
mph
36
mph
0.00"
KCBF 181335Z AUTO 17021G31KT 10SM BKN029 OVC033 26/25 A2967 RMK AO2
8:15AM
VFR
79° 75° 79° 89
%
9
mi
1004.7
mb
3000
ft
S 25
mph
33
mph
0.00"
KCBF 181315Z AUTO 18022G29KT 9SM FEW024 BKN030 OVC035 26/24 A2967 RMK AO2
7:55AM
VFR
77° 77° 77° 100
%
9
mi
1004.7
mb
3300
ft
S 23
mph
33
mph
0.00"
KCBF 181255Z AUTO 17020G29KT 9SM SCT024 OVC033 25/25 A2967 RMK AO2
7:35AM
MVFR
77° 77° 77° 100
%
10
mi
1004.4
mb
2700
ft
S 21
mph
30
mph
0.00"
KCBF 181235Z AUTO 17018G26KT 10SM BKN027 OVC034 25/25 A2966 RMK AO2
7:15AM
MVFR
77° 77° 77° 100
%
9
mi
1004.4
mb
2700
ft
S 21
mph
26
mph
0.00"
KCBF 181215Z AUTO 17018G23KT 9SM OVC027 25/25 A2966 RMK AO2
6:55AM
MVFR
77° 75° 77° 94
%
10
mi
1004.1
mb
2800
ft
S 18
mph
25
mph
0.00"
KCBF 181155Z AUTO 17016G22KT 10SM OVC028 25/24 A2965 RMK AO2
6:35AM
MVFR
77° 75° 77° 94
%
10
mi
1004.1
mb
2700
ft
S 17
mph
29
mph
0.00"
KCBF 181135Z AUTO 17015G25KT 10SM OVC027 25/24 A2965 RMK AO2
6:15AM
MVFR
77° 75° 77° 94
%
10
mi
1004.1
mb
2800
ft
S 22
mph
30
mph
0.00"
KCBF 181115Z AUTO 18019G26KT 10SM OVC028 25/24 A2965 RMK AO2
Click here to show this page without METARs/TAFs included